createdAt,value
2023-04-12T00:12:28.298Z,9.12
2023-04-12T00:32:28.291Z,9.00
2023-04-12T00:52:28.300Z,9.31
2023-04-12T01:12:28.300Z,9.43
2023-04-12T01:32:28.290Z,9.43
2023-04-12T01:52:28.335Z,9.37
2023-04-12T02:12:28.291Z,9.18
2023-04-12T02:32:28.289Z,9.06
2023-04-12T02:52:28.296Z,9.18
2023-04-12T03:12:28.342Z,9.12
2023-04-12T03:32:28.282Z,9.06
2023-04-12T03:52:28.280Z,9.18
2023-04-12T04:12:28.279Z,9.31
2023-04-12T04:32:28.286Z,9.18
2023-04-12T04:52:28.280Z,9.06
2023-04-12T05:12:28.311Z,9.18
2023-04-12T05:32:28.285Z,9.00
2023-04-12T05:52:28.342Z,9.31
2023-04-12T06:12:28.317Z,9.31
2023-04-12T06:32:28.334Z,9.31
2023-04-12T06:52:28.420Z,9.18
2023-04-12T07:12:28.284Z,9.18
2023-04-12T07:32:28.274Z,9.18
2023-04-12T07:52:28.279Z,9.18
2023-04-12T08:12:28.197Z,9.25
2023-04-12T08:32:28.190Z,9.31
2023-04-12T08:52:28.183Z,9.37
2023-04-12T09:12:28.187Z,9.25
2023-04-12T09:32:28.270Z,9.43
2023-04-12T09:52:28.193Z,9.31
2023-04-12T10:12:28.330Z,9.31
2023-04-12T10:32:28.130Z,9.37
2023-04-12T10:52:28.112Z,9.43
2023-04-12T11:12:28.249Z,9.43
2023-04-12T11:32:28.133Z,9.56
2023-04-12T11:52:28.182Z,9.50
2023-04-12T12:12:28.092Z,9.50
2023-04-12T12:32:28.044Z,9.56
2023-04-12T12:52:28.135Z,9.56
2023-04-12T13:12:28.072Z,9.56
2023-04-12T13:32:27.965Z,9.68
2023-04-12T13:52:27.989Z,9.56
2023-04-12T14:12:28.057Z,9.68
2023-04-12T14:32:28.050Z,9.56
2023-04-12T14:52:28.025Z,9.50
2023-04-12T15:12:27.903Z,9.93
2023-04-12T15:32:27.930Z,9.81
2023-04-12T15:52:27.934Z,9.81
2023-04-12T16:12:27.931Z,9.75
2023-04-12T16:32:27.840Z,9.75
2023-04-12T16:52:27.985Z,9.81
2023-04-12T17:12:27.932Z,9.81
2023-04-12T17:32:27.950Z,9.56
2023-04-12T17:52:27.753Z,9.56
2023-04-12T18:12:27.753Z,9.62
2023-04-12T18:32:27.751Z,9.62
2023-04-12T18:52:27.775Z,9.75
2023-04-12T19:12:27.763Z,9.75
2023-04-12T19:32:27.759Z,9.62
2023-04-12T19:52:27.831Z,9.62
2023-04-12T20:12:27.664Z,9.68
2023-04-12T20:32:27.666Z,9.56
2023-04-12T20:52:27.662Z,9.56
2023-04-12T21:12:27.667Z,9.56
2023-04-12T21:32:27.670Z,9.62
2023-04-12T21:52:27.678Z,9.50
2023-04-12T22:12:27.678Z,9.62
2023-04-12T22:32:27.677Z,9.37
2023-04-12T22:52:27.671Z,9.50
2023-04-12T23:12:27.674Z,9.43
2023-04-12T23:32:27.574Z,9.56
2023-04-12T23:52:27.581Z,9.62
